Аэропорт: Остафьево. Москва

ICAO: UUMO

METAR:
2024-04-22 21:00:00
UUMO 222100Z 23006MPS 9999 SCT040 08/03 Q1017 R25/CLRD60 NOSIG RMK QFE748/0997
TAF:
Информация по данной станции не доступна